Time;durP1;ratioP1;P1;durP2;ratioP2;P2;SDS_P1;SDS_P2;PMS_P1;PMS_P2;Temp;Humidity;BMP_temperature;BMP_pressure;BME280_temperature;BME280_humidity;BME280_pressure;Samples;Min_cycle;Max_cycle;Signal;HPM_P1;HPM_P2
2021/07/10 00:00:54;;;;;;;15.40;14.30;;;14.20;99.90;;;;;;5003505;28;20211;-78
2021/07/10 00:03:21;;;;;;;15.87;14.77;;;14.10;99.90;;;;;;5000132;28;20227;-79
2021/07/10 00:05:48;;;;;;;15.60;14.20;;;14.10;99.90;;;;;;5006709;28;20203;-78
2021/07/10 00:08:15;;;;;;;15.53;14.33;;;14.10;99.90;;;;;;5005773;28;20681;-79
2021/07/10 00:10:42;;;;;;;16.57;15.27;;;14.10;99.90;;;;;;5004825;28;20216;-78
2021/07/10 00:13:10;;;;;;;16.87;15.47;;;14.10;99.90;;;;;;5002752;28;20238;-79
2021/07/10 00:15:37;;;;;;;16.17;14.97;;;14.10;99.90;;;;;;5004637;28;20214;-78
2021/07/10 00:18:04;;;;;;;16.70;15.50;;;14.00;99.90;;;;;;5006159;28;20212;-78
2021/07/10 00:20:31;;;;;;;16.70;15.50;;;14.00;99.90;;;;;;5006298;28;20215;-78
2021/07/10 00:22:58;;;;;;;17.50;16.20;;;13.90;99.90;;;;;;4996145;28;20577;-78
2021/07/10 00:25:24;;;;;;;16.67;15.47;;;14.00;99.90;;;;;;5004948;28;20200;-78
2021/07/10 00:27:52;;;;;;;17.83;16.43;;;14.00;99.90;;;;;;5004256;28;20235;-78
2021/07/10 00:30:21;;;;;;;18.00;16.60;;;13.90;99.90;;;;;;5006488;28;20285;-78
2021/07/10 00:32:49;;;;;;;17.93;16.63;;;13.90;99.90;;;;;;5004005;28;20199;-78
2021/07/10 00:35:16;;;;;;;17.40;16.10;;;13.90;99.90;;;;;;5006907;28;20199;-79
2021/07/10 00:37:43;;;;;;;17.33;15.93;;;13.90;99.90;;;;;;5004306;28;20194;-78
2021/07/10 00:40:13;;;;;;;18.20;16.70;;;13.80;99.90;;;;;;5006379;28;20261;-79
2021/07/10 00:42:41;;;;;;;17.27;15.97;;;13.80;99.90;;;;;;5005243;28;20203;-78
2021/07/10 00:45:10;;;;;;;18.47;17.07;;;13.80;99.90;;;;;;5002628;28;20203;-78
2021/07/10 00:47:39;;;;;;;17.40;16.10;;;13.70;99.90;;;;;;5003245;28;20210;-78
2021/07/10 00:50:10;;;;;;;16.87;15.60;;;13.70;99.90;;;;;;4999419;28;20218;-78
2021/07/10 00:52:37;;;;;;;17.97;16.47;;;13.70;99.90;;;;;;5001978;28;20211;-79
2021/07/10 00:55:04;;;;;;;18.70;17.20;;;13.60;99.90;;;;;;5006204;28;20193;-78
2021/07/10 00:57:33;;;;;;;17.60;16.30;;;13.50;99.90;;;;;;5001109;28;20245;-79
2021/07/10 01:00:00;;;;;;;18.40;16.93;;;13.50;99.90;;;;;;5007649;28;20277;-78
2021/07/10 01:02:27;;;;;;;18.60;17.20;;;13.50;99.90;;;;;;5001094;28;20205;-78
2021/07/10 01:04:55;;;;;;;18.23;16.93;;;13.40;99.90;;;;;;5009174;28;20210;-79
2021/07/10 01:07:22;;;;;;;18.60;17.10;;;13.40;99.90;;;;;;5003428;28;20210;-79
2021/07/10 01:09:49;;;;;;;18.40;16.90;;;13.40;99.90;;;;;;5002209;28;20247;-79
2021/07/10 01:12:15;;;;;;;17.33;16.03;;;13.40;99.90;;;;;;5004607;28;20202;-78
2021/07/10 01:14:43;;;;;;;17.37;16.13;;;13.40;99.90;;;;;;4995295;28;20210;-78
2021/07/10 01:17:10;;;;;;;18.23;16.90;;;13.40;99.90;;;;;;4993818;28;20214;-78
2021/07/10 01:19:37;;;;;;;18.27;16.97;;;13.40;99.90;;;;;;4998162;28;20211;-78
2021/07/10 01:22:09;;;;;;;17.70;16.40;;;13.30;99.90;;;;;;5005182;28;20206;-79
2021/07/10 01:24:36;;;;;;;18.00;16.70;;;13.30;99.90;;;;;;5005763;28;20194;-79
2021/07/10 01:27:04;;;;;;;18.67;17.30;;;13.20;99.90;;;;;;5002220;28;20194;-79
2021/07/10 01:29:31;;;;;;;18.00;16.60;;;13.20;99.90;;;;;;5007189;28;20278;-79
2021/07/10 01:32:00;;;;;;;17.47;16.23;;;13.20;99.90;;;;;;4993240;28;20209;-79
2021/07/10 01:34:29;;;;;;;18.30;16.90;;;13.20;99.90;;;;;;5009408;28;20603;-79
2021/07/10 01:36:56;;;;;;;18.33;16.97;;;13.10;99.90;;;;;;4996142;28;20301;-78
2021/07/10 01:39:24;;;;;;;18.30;16.90;;;13.10;99.90;;;;;;5004973;28;20284;-79
2021/07/10 01:41:53;;;;;;;18.40;17.00;;;13.10;99.90;;;;;;4994491;28;20799;-79
2021/07/10 01:44:21;;;;;;;18.90;17.23;;;13.10;99.90;;;;;;5004509;28;20225;-79
2021/07/10 01:46:48;;;;;;;18.47;16.83;;;13.00;99.90;;;;;;4989938;28;20225;-79
2021/07/10 01:49:15;;;;;;;18.80;17.40;;;13.00;99.90;;;;;;4995776;28;20317;-79
2021/07/10 01:51:42;;;;;;;18.63;17.00;;;12.90;99.90;;;;;;5002400;28;20195;-78
2021/07/10 01:54:08;;;;;;;17.70;16.40;;;12.90;99.90;;;;;;4995855;28;20581;-78
2021/07/10 01:56:37;;;;;;;18.13;16.63;;;12.90;99.90;;;;;;5002608;28;20896;-78
2021/07/10 01:59:04;;;;;;;17.80;16.27;;;12.90;99.90;;;;;;4996689;28;20189;-78
2021/07/10 02:01:32;;;;;;;17.20;16.00;;;12.90;99.90;;;;;;4996614;28;20206;-78
2021/07/10 02:03:59;;;;;;;17.77;16.47;;;12.90;99.90;;;;;;5005762;28;20190;-78
2021/07/10 02:06:26;;;;;;;17.27;16.00;;;12.80;99.90;;;;;;5000204;28;20202;-78
2021/07/10 02:08:53;;;;;;;18.37;17.07;;;12.80;99.90;;;;;;5004633;28;20268;-78
2021/07/10 02:11:20;;;;;;;19.30;17.90;;;12.80;99.90;;;;;;5003913;28;20272;-79
2021/07/10 02:13:48;;;;;;;18.77;17.37;;;12.80;99.90;;;;;;4998579;28;20194;-78
2021/07/10 02:16:15;;;;;;;19.13;17.63;;;12.70;99.90;;;;;;5001488;28;20198;-78
2021/07/10 02:18:42;;;;;;;18.63;17.23;;;12.60;99.90;;;;;;5001248;28;20197;-79
2021/07/10 02:21:09;;;;;;;19.03;17.53;;;12.60;99.90;;;;;;5001188;28;20257;-78
2021/07/10 02:23:36;;;;;;;18.40;17.10;;;12.60;99.90;;;;;;5002454;28;20201;-79
2021/07/10 02:26:03;;;;;;;19.67;18.10;;;12.60;99.90;;;;;;5006302;28;20193;-78
2021/07/10 02:28:30;;;;;;;18.40;17.00;;;12.60;99.90;;;;;;5004801;28;20813;-79
2021/07/10 02:30:58;;;;;;;19.70;18.00;;;12.50;99.90;;;;;;4991629;28;20209;-78
2021/07/10 02:33:25;;;;;;;18.53;17.23;;;12.60;99.90;;;;;;4999243;28;20204;-78
2021/07/10 02:35:52;;;;;;;18.57;17.27;;;12.60;99.90;;;;;;5003890;28;20198;-78
2021/07/10 02:38:19;;;;;;;19.63;17.93;;;12.50;99.90;;;;;;5000655;28;20199;-76
2021/07/10 02:40:46;;;;;;;20.77;19.03;;;12.50;99.90;;;;;;4989499;28;20632;-77
2021/07/10 02:43:13;;;;;;;20.50;18.97;;;12.50;99.90;;;;;;4988593;28;20654;-78
2021/07/10 02:45:40;;;;;;;19.27;17.87;;;12.50;99.90;;;;;;4994337;28;20198;-77
2021/07/10 02:48:08;;;;;;;24.00;22.33;;;12.50;99.90;;;;;;4999545;28;20239;-80
2021/07/10 02:50:35;;;;;;;20.80;18.97;;;12.50;99.90;;;;;;4992687;28;20221;-78
2021/07/10 02:53:04;;;;;;;18.83;17.43;;;12.50;99.90;;;;;;4991094;28;20200;-79
2021/07/10 02:55:31;;;;;;;18.93;17.33;;;12.50;99.90;;;;;;4990270;28;20200;-79
2021/07/10 02:57:58;;;;;;;19.47;17.93;;;12.50;99.90;;;;;;4980328;28;20221;-81
2021/07/10 03:00:28;;;;;;;20.03;18.57;;;12.50;99.90;;;;;;5005415;28;20225;-81
2021/07/10 03:02:56;;;;;;;20.07;18.57;;;12.50;99.90;;;;;;4980144;28;20210;-80
2021/07/10 03:05:24;;;;;;;19.93;18.43;;;12.60;99.90;;;;;;4991258;28;20282;-79
2021/07/10 03:07:52;;;;;;;19.63;18.03;;;12.50;99.90;;;;;;4978138;28;20209;-80
2021/07/10 03:10:21;;;;;;;19.37;17.87;;;12.50;99.90;;;;;;5004341;23;20301;-76
2021/07/10 03:12:49;;;;;;;20.23;18.83;;;12.50;99.90;;;;;;4981602;28;20686;-77
2021/07/10 03:15:17;;;;;;;19.20;17.90;;;12.50;99.90;;;;;;4980061;28;20212;-76
2021/07/10 03:17:46;;;;;;;18.40;17.10;;;12.60;99.90;;;;;;4972904;28;20193;-77
2021/07/10 03:20:14;;;;;;;18.83;17.47;;;12.60;99.90;;;;;;4985380;28;20217;-76
2021/07/10 03:22:42;;;;;;;19.33;18.03;;;12.70;99.90;;;;;;4980407;28;20206;-76
2021/07/10 03:25:12;;;;;;;20.07;18.37;;;12.70;99.90;;;;;;4985847;28;20198;-76
2021/07/10 03:27:39;;;;;;;20.20;18.70;;;12.70;99.90;;;;;;4979127;28;20204;-76
2021/07/10 03:30:08;;;;;;;19.57;18.17;;;12.70;99.90;;;;;;4979486;28;20240;-77
2021/07/10 03:32:35;;;;;;;19.00;17.70;;;12.70;99.90;;;;;;4985738;28;20614;-75
2021/07/10 03:35:03;;;;;;;18.47;17.17;;;12.70;99.90;;;;;;4980205;28;20218;-76
2021/07/10 03:37:30;;;;;;;18.57;17.30;;;12.70;99.90;;;;;;4982104;28;20238;-75
2021/07/10 03:39:58;;;;;;;18.17;16.97;;;12.70;99.90;;;;;;4978726;28;20191;-76
2021/07/10 03:42:25;;;;;;;18.03;16.83;;;12.80;99.90;;;;;;4984382;28;20213;-75
2021/07/10 03:44:52;;;;;;;17.50;16.17;;;12.70;99.90;;;;;;4986137;28;20213;-75
2021/07/10 03:47:18;;;;;;;17.97;16.77;;;12.70;99.90;;;;;;4983361;28;20222;-75
2021/07/10 03:49:45;;;;;;;17.13;16.03;;;12.70;99.90;;;;;;4981594;28;20227;-76
2021/07/10 03:52:12;;;;;;;17.97;16.77;;;12.70;99.90;;;;;;4983304;28;20204;-75
2021/07/10 03:54:39;;;;;;;19.07;17.73;;;12.70;99.90;;;;;;4985892;28;20198;-75
2021/07/10 03:57:08;;;;;;;18.27;17.07;;;12.70;99.90;;;;;;4982466;28;20567;-76
2021/07/10 03:59:34;;;;;;;19.30;17.90;;;12.70;99.90;;;;;;4983529;28;20596;-76
2021/07/10 04:02:01;;;;;;;19.73;18.33;;;12.80;99.90;;;;;;4972118;28;20219;-76
2021/07/10 04:04:28;;;;;;;18.80;17.50;;;12.70;99.90;;;;;;4981874;28;20202;-75
2021/07/10 04:06:56;;;;;;;18.93;17.63;;;12.70;99.90;;;;;;4983065;28;20252;-76
2021/07/10 04:09:23;;;;;;;18.87;17.43;;;12.80;99.90;;;;;;4982641;28;20225;-75
2021/07/10 04:11:50;;;;;;;18.03;16.83;;;12.80;99.90;;;;;;4982653;28;20218;-75
2021/07/10 04:14:18;;;;;;;18.37;17.17;;;12.90;99.90;;;;;;4987482;28;20192;-75
2021/07/10 04:16:45;;;;;;;17.53;16.43;;;13.00;99.90;;;;;;4984282;28;20202;-75
2021/07/10 04:19:12;;;;;;;17.03;16.03;;;13.10;99.90;;;;;;4979842;28;20219;-75
2021/07/10 04:21:39;;;;;;;16.50;15.50;;;13.10;99.90;;;;;;4970756;28;20220;-75
2021/07/10 04:24:06;;;;;;;16.80;15.80;;;13.10;99.90;;;;;;4984853;28;20201;-75
2021/07/10 04:26:33;;;;;;;15.83;14.83;;;13.30;99.90;;;;;;4989107;28;20201;-76
2021/07/10 04:28:59;;;;;;;16.90;15.90;;;13.40;99.90;;;;;;4975287;28;20243;-76
2021/07/10 04:31:28;;;;;;;15.03;14.13;;;13.50;99.90;;;;;;4981659;28;20236;-76
2021/07/10 04:33:54;;;;;;;15.03;14.13;;;13.60;99.90;;;;;;4985920;28;20199;-76
2021/07/10 04:36:21;;;;;;;15.47;14.57;;;13.70;99.90;;;;;;4980893;28;20574;-75
2021/07/10 04:38:48;;;;;;;15.07;14.20;;;13.80;99.90;;;;;;4984859;28;20280;-76
2021/07/10 04:41:15;;;;;;;15.37;14.47;;;13.90;99.90;;;;;;4987283;28;20247;-76
2021/07/10 04:43:42;;;;;;;15.37;14.47;;;14.00;99.90;;;;;;4975357;28;20247;-76
2021/07/10 04:46:11;;;;;;;15.97;14.97;;;14.10;99.90;;;;;;4976675;28;20249;-77
2021/07/10 04:48:39;;;;;;;13.40;12.60;;;14.10;99.90;;;;;;4978648;28;20202;-76
2021/07/10 04:51:06;;;;;;;14.67;13.83;;;14.30;99.90;;;;;;4973847;28;20264;-76
2021/07/10 04:53:33;;;;;;;14.40;13.60;;;14.50;99.90;;;;;;4981521;28;20259;-76
2021/07/10 04:56:01;;;;;;;15.43;14.53;;;14.60;99.90;;;;;;4981899;28;20190;-77
2021/07/10 04:58:28;;;;;;;13.93;13.13;;;14.60;99.90;;;;;;4977490;28;20197;-77
2021/07/10 05:00:54;;;;;;;11.30;10.60;;;14.70;99.90;;;;;;4980934;28;20698;-76
2021/07/10 05:03:21;;;;;;;13.70;12.90;;;14.80;99.90;;;;;;4967209;28;20205;-76
2021/07/10 05:05:49;;;;;;;7.20;6.70;;;15.00;99.90;;;;;;4974066;28;20291;-76
2021/07/10 05:08:16;;;;;;;11.17;10.50;;;15.10;99.90;;;;;;4974040;28;20214;-76
2021/07/10 05:10:44;;;;;;;9.80;9.20;;;15.10;99.90;;;;;;4985347;28;20264;-78
2021/07/10 05:13:10;;;;;;;13.03;12.23;;;15.30;99.90;;;;;;4976702;28;20199;-76
2021/07/10 05:15:37;;;;;;;10.33;9.73;;;15.30;99.90;;;;;;4982043;28;20201;-77
2021/07/10 05:18:04;;;;;;;9.80;9.20;;;15.40;99.90;;;;;;4983709;28;20205;-76
2021/07/10 05:20:31;;;;;;;8.80;8.20;;;15.50;99.90;;;;;;4980090;28;20268;-76
2021/07/10 05:23:00;;;;;;;7.93;7.43;;;15.60;99.90;;;;;;4971319;28;20193;-77
2021/07/10 05:25:26;;;;;;;8.47;7.97;;;15.80;99.90;;;;;;4983203;28;20194;-77
2021/07/10 05:27:53;;;;;;;7.50;7.00;;;16.10;99.90;;;;;;4974695;28;20203;-76
2021/07/10 05:30:20;;;;;;;7.57;7.07;;;16.20;99.90;;;;;;4972803;28;20223;-77
2021/07/10 05:32:47;;;;;;;7.07;6.47;;;16.40;99.90;;;;;;4978867;28;20202;-77
2021/07/10 05:35:18;;;;;;;11.33;10.70;;;16.50;99.90;;;;;;4989764;28;20669;-76
2021/07/10 05:37:45;;;;;;;8.50;8.00;;;16.50;99.90;;;;;;4982526;28;20230;-80
2021/07/10 05:40:14;;;;;;;10.03;9.33;;;16.50;99.90;;;;;;4978934;28;20228;-76
2021/07/10 05:42:41;;;;;;;10.77;10.07;;;16.60;99.90;;;;;;4975979;28;20218;-77
2021/07/10 05:45:09;;;;;;;11.00;10.30;;;16.90;99.90;;;;;;4985651;28;20216;-77
2021/07/10 05:47:36;;;;;;;9.40;8.80;;;17.40;99.90;;;;;;4973985;28;20201;-76
2021/07/10 05:50:04;;;;;;;9.93;9.33;;;18.00;99.90;;;;;;4974795;28;20272;-77
2021/07/10 05:52:31;;;;;;;9.73;9.13;;;18.50;99.90;;;;;;4988154;28;20201;-77
2021/07/10 05:54:58;;;;;;;11.10;10.50;;;18.90;99.90;;;;;;4977696;28;20650;-77
2021/07/10 05:57:26;;;;;;;12.20;11.50;;;19.40;99.90;;;;;;4980858;28;20205;-79
2021/07/10 05:59:53;;;;;;;9.43;8.90;;;19.80;99.90;;;;;;4977069;28;20207;-78
2021/07/10 06:02:19;;;;;;;8.50;7.90;;;20.00;99.90;;;;;;4963778;28;20256;-77
2021/07/10 06:04:46;;;;;;;11.57;10.93;;;20.40;99.90;;;;;;4972533;28;20680;-78
2021/07/10 06:07:13;;;;;;;10.33;9.73;;;20.70;99.90;;;;;;4972774;28;20198;-78
2021/07/10 06:09:40;;;;;;;12.07;11.30;;;21.10;99.90;;;;;;4974751;28;20269;-78
2021/07/10 06:12:07;;;;;;;11.70;10.90;;;21.30;99.90;;;;;;4985362;28;20628;-77
2021/07/10 06:14:36;;;;;;;12.17;11.30;;;21.30;99.90;;;;;;4990788;28;20202;-77
2021/07/10 06:17:03;;;;;;;12.00;11.30;;;21.40;99.90;;;;;;4985657;28;20197;-78
2021/07/10 06:19:30;;;;;;;11.00;10.30;;;21.60;99.90;;;;;;4998955;28;20190;-78
2021/07/10 06:21:58;;;;;;;10.73;10.03;;;21.80;99.90;;;;;;4968148;28;20240;-77
2021/07/10 06:24:26;;;;;;;11.60;10.70;;;22.00;99.90;;;;;;4986063;28;20202;-78
2021/07/10 06:26:53;;;;;;;11.77;10.87;;;22.00;99.90;;;;;;4985545;28;20304;-76
2021/07/10 06:29:20;;;;;;;10.10;9.10;;;21.90;99.90;;;;;;4986168;28;20217;-77
2021/07/10 06:31:48;;;;;;;11.93;11.13;;;21.90;99.90;;;;;;4979795;28;20222;-78
2021/07/10 06:34:15;;;;;;;12.77;11.70;;;22.10;99.90;;;;;;4984922;28;20629;-77
2021/07/10 06:36:43;;;;;;;13.17;12.37;;;22.30;99.90;;;;;;4982675;28;20205;-77
2021/07/10 06:39:10;;;;;;;13.13;12.23;;;22.40;99.90;;;;;;4971649;28;20201;-77
2021/07/10 06:41:37;;;;;;;13.17;12.37;;;22.30;99.90;;;;;;4977965;28;20272;-79
2021/07/10 06:44:05;;;;;;;13.27;12.40;;;22.50;99.90;;;;;;4978358;28;20205;-77
2021/07/10 06:46:32;;;;;;;13.67;12.80;;;22.90;99.90;;;;;;4977106;28;20201;-76
2021/07/10 06:49:00;;;;;;;8.20;7.40;;;23.10;99.90;;;;;;4984361;28;20201;-77
2021/07/10 06:51:27;;;;;;;6.30;5.70;;;23.30;99.90;;;;;;4986216;28;20273;-79
2021/07/10 06:53:54;;;;;;;7.80;6.90;;;23.30;99.90;;;;;;4983140;28;20193;-77
2021/07/10 06:56:21;;;;;;;6.60;5.67;;;23.40;99.90;;;;;;4978409;28;20200;-80
2021/07/10 06:58:48;;;;;;;5.70;5.20;;;23.40;99.90;;;;;;4982729;28;20190;-79
2021/07/10 07:01:15;;;;;;;9.20;8.50;;;23.40;99.90;;;;;;4979631;28;20587;-80
2021/07/10 07:03:42;;;;;;;8.83;8.23;;;23.60;99.90;;;;;;4978488;28;20198;-79
2021/07/10 07:06:10;;;;;;;8.57;7.87;;;23.90;99.90;;;;;;4975783;28;20212;-79
2021/07/10 07:08:37;;;;;;;5.50;5.00;;;24.00;99.90;;;;;;4976652;28;20200;-79
2021/07/10 07:11:04;;;;;;;5.27;4.77;;;24.00;99.90;;;;;;4979433;28;20626;-80
2021/07/10 07:13:31;;;;;;;6.17;5.50;;;24.10;99.90;;;;;;4971991;28;20205;-80
2021/07/10 07:15:58;;;;;;;10.37;9.60;;;24.40;99.90;;;;;;4986126;28;20213;-80
2021/07/10 07:18:25;;;;;;;9.07;8.33;;;24.30;99.90;;;;;;4976230;28;20719;-80
2021/07/10 07:20:51;;;;;;;11.60;10.70;;;23.60;99.90;;;;;;4972710;28;20229;-79
2021/07/10 07:23:20;;;;;;;10.90;10.10;;;24.00;99.90;;;;;;4972809;28;20190;-77
2021/07/10 07:25:46;;;;;;;13.00;12.20;;;24.30;99.90;;;;;;4979567;28;20209;-77
2021/07/10 07:28:13;;;;;;;12.60;11.80;;;24.50;99.90;;;;;;4965752;28;20203;-77
2021/07/10 07:30:40;;;;;;;12.00;11.30;;;24.60;99.90;;;;;;4974916;28;20244;-77
2021/07/10 07:33:07;;;;;;;11.90;11.00;;;24.90;99.90;;;;;;4986227;28;20228;-77
2021/07/10 07:35:34;;;;;;;12.13;11.33;;;25.10;99.90;;;;;;4984971;28;20206;-78
2021/07/10 07:38:01;;;;;;;11.17;10.23;;;25.30;99.90;;;;;;4991850;28;20212;-79
2021/07/10 07:40:30;;;;;;;11.77;10.90;;;25.30;99.90;;;;;;4986340;28;20675;-78
2021/07/10 07:42:57;;;;;;;11.03;10.23;;;25.20;99.90;;;;;;4993915;28;20205;-80
2021/07/10 07:45:24;;;;;;;5.97;5.20;;;24.80;99.90;;;;;;4979382;28;20210;-79
2021/07/10 07:47:51;;;;;;;10.63;9.93;;;24.70;99.90;;;;;;4998156;28;20202;-76
2021/07/10 07:50:19;;;;;;;13.47;12.50;;;24.70;99.90;;;;;;4973607;28;20223;-77
2021/07/10 07:52:47;;;;;;;12.70;11.90;;;24.30;99.90;;;;;;4977369;28;20201;-77
2021/07/10 07:55:15;;;;;;;5.60;4.97;;;24.40;99.90;;;;;;4982551;28;20289;-76
2021/07/10 07:57:43;;;;;;;5.77;5.17;;;24.70;99.90;;;;;;4981692;28;20201;-77
2021/07/10 08:00:13;;;;;;;5.87;5.30;;;24.80;99.90;;;;;;4980081;28;20213;-77
2021/07/10 08:02:41;;;;;;;5.10;4.70;;;24.80;99.90;;;;;;4981896;28;20303;-76
2021/07/10 08:05:09;;;;;;;5.23;4.77;;;25.10;99.90;;;;;;4982294;28;20211;-77
2021/07/10 08:07:36;;;;;;;6.50;5.90;;;25.30;99.90;;;;;;4982297;28;20203;-76
2021/07/10 08:10:04;;;;;;;7.87;5.60;;;25.50;99.90;;;;;;4968547;28;20249;-76
2021/07/10 08:12:32;;;;;;;6.77;4.83;;;25.40;99.90;;;;;;4981228;28;20256;-76
2021/07/10 08:15:00;;;;;;;8.23;5.73;;;25.10;99.90;;;;;;4990619;28;20536;-76
2021/07/10 08:17:28;;;;;;;10.70;10.00;;;25.30;99.90;;;;;;4994418;28;20217;-79
2021/07/10 08:19:55;;;;;;;5.20;4.70;;;25.60;99.90;;;;;;4989605;28;20256;-78
2021/07/10 08:22:22;;;;;;;11.63;10.83;;;25.70;99.90;;;;;;4982688;28;20189;-79
2021/07/10 08:24:49;;;;;;;11.67;10.87;;;25.70;99.90;;;;;;4984799;28;20358;-78
2021/07/10 08:27:15;;;;;;;12.47;11.57;;;25.20;99.90;;;;;;4969693;28;20241;-78
2021/07/10 08:29:42;;;;;;;5.20;4.70;;;25.00;99.90;;;;;;4976497;28;20201;-78
2021/07/10 08:32:11;;;;;;;6.73;5.13;;;25.10;99.90;;;;;;4977141;28;20202;-81
2021/07/10 08:34:38;;;;;;;6.20;5.70;;;25.20;99.90;;;;;;4976864;28;20232;-78
2021/07/10 08:37:05;;;;;;;8.10;7.30;;;25.60;99.90;;;;;;4979409;28;20221;-78
2021/07/10 08:39:32;;;;;;;11.33;10.53;;;26.00;99.90;;;;;;4975241;28;20264;-78
2021/07/10 08:41:59;;;;;;;12.63;11.63;;;26.00;99.90;;;;;;4976991;28;20221;-78
2021/07/10 08:44:27;;;;;;;12.47;11.67;;;26.10;99.90;;;;;;4984204;28;20241;-78
2021/07/10 08:46:54;;;;;;;10.77;10.07;;;26.10;99.90;;;;;;4975847;28;20725;-78
2021/07/10 08:49:23;;;;;;;11.97;11.13;;;26.10;99.90;;;;;;4982894;28;20198;-78
2021/07/10 08:51:50;;;;;;;11.20;10.43;;;26.00;99.90;;;;;;4985358;28;20222;-77
2021/07/10 08:54:17;;;;;;;11.30;10.50;;;26.00;99.90;;;;;;4982470;28;20256;-78
2021/07/10 08:56:45;;;;;;;10.97;10.13;;;26.30;99.90;;;;;;4984741;28;20674;-79
2021/07/10 08:59:13;;;;;;;10.10;9.43;;;26.20;99.90;;;;;;4968164;28;20198;-78
2021/07/10 09:01:40;;;;;;;7.70;7.00;;;26.20;99.90;;;;;;4977600;28;20222;-79
2021/07/10 09:04:07;;;;;;;10.77;10.00;;;26.50;99.90;;;;;;4978766;28;20206;-79
2021/07/10 09:06:35;;;;;;;11.33;10.53;;;26.60;99.90;;;;;;4974487;28;20194;-78
2021/07/10 09:09:03;;;;;;;11.17;10.47;;;26.90;99.90;;;;;;4974474;28;20258;-79
2021/07/10 09:14:48;;;;;;;6.73;6.17;;;26.80;99.90;;;;;;4984489;28;20190;-81
2021/07/10 10:56:00;;;;;;;;;;;;;;;;;;;;;
2021/07/10 11:14:15;;;;;;;8.73;8.13;;;26.90;99.90;;;;;;5130012;23;20234;-81
2021/07/10 12:26:08;;;;;;;6.80;6.40;;;26.30;99.90;;;;;;4918711;28;20663;-79
2021/07/10 13:06:26;;;;;;;9.90;9.30;;;26.50;99.90;;;;;;5240245;22;25764367;-80
2021/07/10 13:09:42;;;;;;;9.93;9.03;;;26.20;99.90;;;;;;6350187;22;20433;-80
2021/07/10 13:16:47;;;;;;;9.03;8.43;;;26.20;99.90;;;;;;6187010;22;20359;-79
2021/07/10 13:24:20;;;;;;;8.80;8.30;;;26.10;99.90;;;;;;6253700;23;20241;-79
2021/07/10 14:01:56;;;;;;;7.70;7.20;;;26.40;99.90;;;;;;6037718;23;20611;-79
2021/07/10 14:17:40;;;;;;;5.53;5.10;;;25.90;99.90;;;;;;6338027;22;20309;-79
2021/07/10 14:20:34;;;;;;;3.10;2.90;;;25.70;99.90;;;;;;6311580;22;20172;-79
2021/07/10 14:26:57;;;;;;;2.93;2.47;;;26.20;99.90;;;;;;6277818;22;20239;-80
2021/07/10 14:29:44;;;;;;;4.30;4.00;;;26.30;99.90;;;;;;6283044;22;20189;-80
2021/07/10 14:32:40;;;;;;;7.60;7.10;;;26.30;99.90;;;;;;6281906;22;20674;-79
2021/07/10 14:35:38;;;;;;;4.67;4.37;;;26.40;99.90;;;;;;6310922;22;20683;-79
2021/07/10 14:38:17;;;;;;;3.30;3.10;;;26.60;99.90;;;;;;6281657;22;20189;-78
2021/07/10 14:41:07;;;;;;;2.50;2.33;;;26.70;99.90;;;;;;6288616;22;20257;-80
2021/07/10 14:43:56;;;;;;;2.70;2.50;;;26.90;99.90;;;;;;6313468;22;20161;-79
2021/07/10 14:49:29;;;;;;;2.67;2.40;;;26.90;99.90;;;;;;6308366;22;20263;-79
2021/07/10 14:52:01;;;;;;;2.40;2.30;;;27.00;99.90;;;;;;6311553;22;20192;-80
2021/07/10 14:55:01;;;;;;;2.60;2.40;;;26.90;99.90;;;;;;6311631;22;20169;-80
2021/07/10 14:57:47;;;;;;;3.00;2.57;;;26.90;99.90;;;;;;6310956;22;20247;-79
2021/07/10 15:00:29;;;;;;;4.73;4.40;;;26.70;99.90;;;;;;6311640;22;20226;-78
2021/07/10 15:03:00;;;;;;;7.17;6.77;;;26.70;99.90;;;;;;6311276;22;20607;-79
2021/07/10 15:05:29;;;;;;;7.17;6.67;;;26.70;99.90;;;;;;6311230;22;20649;-79
2021/07/10 15:08:06;;;;;;;9.13;8.60;;;26.40;99.90;;;;;;6338672;22;20230;-79
2021/07/10 15:10:36;;;;;;;6.33;5.93;;;26.40;99.90;;;;;;6309912;22;20180;-79
2021/07/10 15:13:03;;;;;;;3.70;3.40;;;26.10;99.90;;;;;;6309288;22;20212;-80
2021/07/10 15:15:31;;;;;;;2.53;2.33;;;26.00;99.80;;;;;;6338161;22;20172;-78
2021/07/10 15:17:57;;;;;;;5.53;5.00;;;25.90;99.90;;;;;;6310500;22;20267;-77
2021/07/10 15:20:25;;;;;;;8.50;7.90;;;25.70;99.90;;;;;;6310189;22;20487;-77
2021/07/10 15:22:53;;;;;;;8.17;7.67;;;25.60;99.90;;;;;;6311263;22;20192;-77
2021/07/10 15:25:23;;;;;;;4.27;3.87;;;25.50;99.90;;;;;;6339087;22;20171;-77
2021/07/10 15:27:51;;;;;;;4.47;4.17;;;25.50;99.90;;;;;;6310298;22;20191;-77
2021/07/10 15:30:19;;;;;;;6.70;6.30;;;25.50;99.90;;;;;;6339146;22;20170;-78
2021/07/10 15:32:48;;;;;;;6.90;6.50;;;25.40;99.90;;;;;;6338354;22;20228;-77
2021/07/10 15:35:17;;;;;;;6.97;6.47;;;25.50;99.90;;;;;;6338299;22;20193;-77
2021/07/10 15:37:44;;;;;;;6.87;6.40;;;25.50;99.90;;;;;;6338262;22;20168;-78
2021/07/10 15:40:12;;;;;;;7.40;6.90;;;25.60;99.90;;;;;;6338938;22;20479;-77
2021/07/10 15:42:40;;;;;;;3.37;3.17;;;25.60;99.90;;;;;;6339264;22;20176;-77
2021/07/10 15:45:10;;;;;;;7.20;6.70;;;25.50;99.90;;;;;;6337853;22;20163;-77
2021/07/10 15:47:38;;;;;;;6.80;6.40;;;25.50;99.90;;;;;;6310449;22;20179;-79
2021/07/10 15:50:07;;;;;;;7.07;6.67;;;25.50;99.90;;;;;;6338625;22;20163;-78
2021/07/10 15:52:34;;;;;;;7.33;6.83;;;25.50;99.90;;;;;;6339487;22;20192;-79
2021/07/10 15:55:01;;;;;;;6.80;6.40;;;25.60;99.90;;;;;;6311166;22;20165;-79
2021/07/10 15:57:28;;;;;;;6.93;6.53;;;25.60;99.90;;;;;;6310075;22;20229;-79
2021/07/10 15:59:56;;;;;;;6.70;6.30;;;25.50;99.90;;;;;;6308395;22;20672;-77
2021/07/10 16:02:23;;;;;;;7.10;6.60;;;25.50;99.90;;;;;;6338256;22;20184;-77
2021/07/10 16:04:50;;;;;;;7.07;6.57;;;25.50;99.90;;;;;;6310962;22;20172;-78
2021/07/10 16:07:16;;;;;;;7.30;6.70;;;25.50;99.90;;;;;;6310072;22;20174;-79
2021/07/10 16:09:43;;;;;;;6.90;6.50;;;25.50;99.90;;;;;;6338180;22;20185;-79
2021/07/10 16:12:10;;;;;;;6.83;6.43;;;25.40;99.90;;;;;;6310054;22;20194;-79
2021/07/10 16:14:37;;;;;;;7.20;6.70;;;25.40;99.90;;;;;;6337947;22;20163;-78
2021/07/10 16:17:05;;;;;;;7.20;6.70;;;25.30;99.90;;;;;;6336754;22;20161;-82
2021/07/10 16:19:32;;;;;;;7.10;6.70;;;25.30;99.90;;;;;;6337222;22;20160;-80
2021/07/10 16:21:59;;;;;;;7.20;6.70;;;25.40;99.90;;;;;;6337715;22;20188;-80
2021/07/10 16:24:25;;;;;;;7.20;6.70;;;25.30;99.90;;;;;;6310217;22;20535;-80
2021/07/10 16:26:53;;;;;;;6.87;6.47;;;25.40;99.90;;;;;;6309524;22;20169;-80
2021/07/10 16:29:20;;;;;;;7.30;6.80;;;25.30;99.90;;;;;;6337213;22;20235;-79
2021/07/10 16:31:47;;;;;;;6.77;6.27;;;25.30;99.90;;;;;;6310974;22;20215;-80
2021/07/10 16:34:15;;;;;;;7.10;6.60;;;25.20;99.90;;;;;;6310290;22;20168;-78
2021/07/10 16:36:42;;;;;;;6.70;6.30;;;25.10;99.90;;;;;;6310195;22;20168;-80
2021/07/10 16:39:09;;;;;;;6.80;6.40;;;25.10;99.90;;;;;;6309966;22;20548;-81
2021/07/10 16:41:36;;;;;;;7.73;7.10;;;25.10;99.90;;;;;;6337826;22;20188;-80
2021/07/10 16:44:03;;;;;;;7.57;7.07;;;25.10;99.90;;;;;;6337834;22;20210;-81
2021/07/10 16:46:30;;;;;;;6.87;6.47;;;25.10;99.90;;;;;;6338273;22;20624;-80
2021/07/10 16:48:57;;;;;;;7.33;6.83;;;25.10;99.90;;;;;;6309670;22;20238;-81
2021/07/10 16:51:25;;;;;;;7.50;6.90;;;25.10;99.90;;;;;;6309935;22;20189;-79
2021/07/10 16:53:52;;;;;;;6.90;6.50;;;25.10;99.90;;;;;;6310102;22;20168;-81
2021/07/10 16:56:19;;;;;;;7.10;6.70;;;25.10;99.90;;;;;;6337379;22;20173;-79
2021/07/10 16:58:46;;;;;;;7.00;6.60;;;25.10;99.90;;;;;;6309132;22;20171;-79
2021/07/10 17:01:13;;;;;;;7.10;6.60;;;25.00;99.90;;;;;;6309482;22;20164;-80
2021/07/10 17:03:40;;;;;;;7.20;6.80;;;25.00;99.90;;;;;;6337247;22;20161;-83
2021/07/10 17:06:07;;;;;;;6.97;6.50;;;25.00;99.90;;;;;;6311184;22;20175;-81
2021/07/10 17:08:35;;;;;;;7.40;6.90;;;25.00;99.90;;;;;;6339587;22;20181;-79
2021/07/10 17:11:04;;;;;;;7.30;6.80;;;24.90;99.90;;;;;;6311757;22;20190;-82
2021/07/10 17:13:31;;;;;;;6.90;6.50;;;24.90;99.90;;;;;;6340857;22;20164;-80
2021/07/10 17:15:58;;;;;;;7.33;6.80;;;24.80;99.90;;;;;;6337278;22;20669;-80
2021/07/10 17:18:25;;;;;;;7.57;7.07;;;24.80;99.90;;;;;;6309564;22;20172;-80
2021/07/10 17:20:53;;;;;;;7.37;6.87;;;24.80;99.90;;;;;;6337110;22;20172;-80
2021/07/10 17:23:20;;;;;;;7.93;7.43;;;24.80;99.90;;;;;;6309541;22;20271;-79
2021/07/10 17:25:49;;;;;;;7.67;7.07;;;24.80;99.90;;;;;;6310771;22;20169;-79
2021/07/10 17:28:16;;;;;;;7.17;6.70;;;24.70;99.90;;;;;;6315407;22;20172;-81
2021/07/10 17:30:44;;;;;;;7.67;7.17;;;24.60;99.90;;;;;;6321777;22;20171;-80